createdAt,value
2023-05-01T00:01:16.081Z,83.20
2023-05-01T00:06:18.604Z,83.20
2023-05-01T00:11:21.040Z,85.50
2023-05-01T00:16:23.930Z,85.40
2023-05-01T00:21:28.294Z,85.60
2023-05-01T00:26:31.568Z,86.50
2023-05-01T00:31:34.332Z,86.70
2023-05-01T00:36:36.772Z,86.90
2023-05-01T00:41:39.041Z,86.10
2023-05-01T00:46:42.519Z,86.10
2023-05-01T00:51:49.415Z,86.30
2023-05-01T00:56:52.541Z,87.00
2023-05-01T01:01:56.551Z,86.90
2023-05-01T01:07:06.253Z,85.90
2023-05-01T01:12:32.185Z,86.90
2023-05-01T01:17:51.941Z,86.90
2023-05-01T01:23:31.482Z,87.60
2023-05-01T01:28:46.486Z,90.60
2023-05-01T01:34:02.486Z,91.10
2023-05-01T01:39:14.550Z,90.90
2023-05-01T01:44:23.213Z,90.50
2023-05-01T01:49:27.507Z,90.80
2023-05-01T01:54:35.634Z,91.60
2023-05-01T01:59:39.247Z,92.00
2023-05-01T02:04:43.565Z,92.40
2023-05-01T02:09:46.791Z,93.00
2023-05-01T02:14:51.520Z,92.80
2023-05-01T02:19:55.662Z,92.80
2023-05-01T02:25:00.215Z,92.10
2023-05-01T02:30:02.578Z,92.60
2023-05-01T02:35:05.362Z,93.50
2023-05-01T02:40:08.376Z,94.00
2023-05-01T02:45:19.198Z,93.70
2023-05-01T02:50:23.070Z,93.70
2023-05-01T02:55:26.358Z,92.70
2023-05-01T03:00:28.684Z,92.60
2023-05-01T03:05:30.963Z,92.90
2023-05-01T03:10:33.867Z,93.00
2023-05-01T03:15:36.682Z,94.00
2023-05-01T03:20:39.775Z,94.60
2023-05-01T03:25:42.449Z,94.60
2023-05-01T03:30:45.176Z,94.50
2023-05-01T03:35:48.059Z,94.00
2023-05-01T03:40:51.259Z,94.60
2023-05-01T03:46:16.438Z,94.70
2023-05-01T03:51:19.277Z,95.40
2023-05-01T03:56:22.120Z,95.30
2023-05-01T04:01:24.698Z,95.50
2023-05-01T04:06:28.343Z,95.90
2023-05-01T04:11:30.666Z,96.20
2023-05-01T04:16:33.300Z,96.60
2023-05-01T04:21:36.605Z,97.10
2023-05-01T04:26:39.334Z,97.40
2023-05-01T04:31:43.398Z,98.80
2023-05-01T04:36:46.233Z,98.40
2023-05-01T04:41:48.572Z,98.20
2023-05-01T04:46:51.496Z,98.70
2023-05-01T04:51:54.041Z,99.60
2023-05-01T04:56:58.005Z,99.50
2023-05-01T05:02:00.471Z,99.30
2023-05-01T05:07:03.059Z,95.20
2023-05-01T05:12:25.335Z,92.80
2023-05-01T05:17:27.749Z,90.90
2023-05-01T05:22:30.613Z,90.40
2023-05-01T05:27:53.202Z,90.30
2023-05-01T05:32:56.017Z,89.10
2023-05-01T05:37:58.609Z,88.60
2023-05-01T05:43:01.788Z,87.00
2023-05-01T05:48:06.062Z,86.30
2023-05-01T05:53:11.794Z,86.50
2023-05-01T05:58:20.010Z,86.60
2023-05-01T06:03:23.759Z,87.10
2023-05-01T06:08:29.052Z,85.70
2023-05-01T06:13:32.991Z,84.60
2023-05-01T06:18:35.542Z,84.40
2023-05-01T06:23:38.295Z,84.20
2023-05-01T06:29:01.926Z,83.90
2023-05-01T06:34:04.562Z,83.50
2023-05-01T06:39:17.047Z,84.00
2023-05-01T06:44:19.364Z,81.90
2023-05-01T06:49:21.648Z,80.20
2023-05-01T06:54:24.026Z,81.00
2023-05-01T06:59:28.175Z,77.50
2023-05-01T07:04:32.145Z,76.50
2023-05-01T07:09:34.503Z,75.70
2023-05-01T07:14:36.739Z,74.00
2023-05-01T07:19:39.510Z,71.50
2023-05-01T07:24:41.909Z,72.60
2023-05-01T07:29:44.690Z,71.80
2023-05-01T07:34:46.945Z,69.60
2023-05-01T07:39:49.172Z,68.20
2023-05-01T07:44:51.799Z,66.40
2023-05-01T07:49:54.208Z,65.30
2023-05-01T07:54:56.627Z,65.20
2023-05-01T07:59:59.189Z,64.50
2023-05-01T08:05:02.846Z,64.00
2023-05-01T08:10:05.883Z,65.50
2023-05-01T08:15:08.679Z,61.30
2023-05-01T08:20:11.913Z,60.50
2023-05-01T08:25:14.849Z,59.60
2023-05-01T08:30:17.089Z,59.10
2023-05-01T08:35:19.335Z,60.10
2023-05-01T08:40:23.167Z,58.80
2023-05-01T08:45:25.888Z,57.90
2023-05-01T08:50:28.951Z,57.00
2023-05-01T08:55:34.848Z,55.80
2023-05-01T09:00:38.273Z,53.90
2023-05-01T09:05:40.831Z,55.80
2023-05-01T09:10:48.233Z,54.00
2023-05-01T09:15:50.780Z,51.10
2023-05-01T09:20:55.074Z,52.90
2023-05-01T09:25:58.149Z,53.70
2023-05-01T09:31:00.514Z,52.00
2023-05-01T09:36:03.023Z,52.80
2023-05-01T09:41:06.376Z,50.60
2023-05-01T09:46:13.072Z,51.50
2023-05-01T09:51:23.051Z,48.00
2023-05-01T09:56:29.578Z,47.60
2023-05-01T10:01:42.688Z,48.10
2023-05-01T10:06:45.351Z,46.90
2023-05-01T10:11:53.591Z,44.40
2023-05-01T10:16:59.415Z,44.90
2023-05-01T10:22:02.455Z,41.60
2023-05-01T10:27:08.327Z,43.30
2023-05-01T10:32:11.301Z,43.70
2023-05-01T10:37:19.600Z,42.80
2023-05-01T10:42:21.898Z,41.00
2023-05-01T10:47:34.738Z,39.30
2023-05-01T10:53:16.449Z,40.00
2023-05-01T10:58:37.160Z,40.80
2023-05-01T11:03:40.344Z,39.40
2023-05-01T11:08:43.608Z,38.50
2023-05-01T11:14:02.525Z,37.20
2023-05-01T11:19:07.923Z,38.20
2023-05-01T11:24:10.269Z,36.40
2023-05-01T11:29:12.875Z,35.20
2023-05-01T11:34:15.354Z,33.00
2023-05-01T11:39:18.427Z,33.90
2023-05-01T11:44:20.803Z,33.20
2023-05-01T11:49:29.519Z,31.10
2023-05-01T11:54:31.805Z,31.90
2023-05-01T11:59:34.187Z,30.70
2023-05-01T12:04:36.541Z,31.00
2023-05-01T12:09:42.146Z,30.40
2023-05-01T12:14:44.525Z,29.70
2023-05-01T12:19:51.227Z,30.00
2023-05-01T12:24:54.073Z,28.80
2023-05-01T12:29:57.360Z,29.20
2023-05-01T12:34:59.858Z,29.30
2023-05-01T12:40:02.713Z,27.90
2023-05-01T12:45:05.795Z,26.70
2023-05-01T12:50:09.574Z,25.90
2023-05-01T12:55:12.833Z,25.90
2023-05-01T13:00:15.701Z,25.30
2023-05-01T13:05:18.187Z,25.20
2023-05-01T13:10:31.531Z,25.60
2023-05-01T13:15:33.941Z,25.50
2023-05-01T13:20:38.948Z,24.70
2023-05-01T13:25:41.449Z,23.80
2023-05-01T13:30:43.950Z,23.00
2023-05-01T13:35:46.630Z,22.50
2023-05-01T13:40:49.146Z,22.10
2023-05-01T13:45:51.770Z,22.50
2023-05-01T13:50:54.113Z,22.00
2023-05-01T13:55:56.484Z,21.80
2023-05-01T14:00:58.762Z,21.30
2023-05-01T14:06:01.115Z,19.70
2023-05-01T14:11:08.368Z,19.70
2023-05-01T14:16:17.125Z,20.10
2023-05-01T14:21:19.761Z,19.60
2023-05-01T14:26:24.100Z,19.20
2023-05-01T14:31:29.306Z,19.90
2023-05-01T14:36:32.702Z,20.20
2023-05-01T14:41:38.851Z,20.00
2023-05-01T14:46:51.316Z,21.20
2023-05-01T14:51:54.501Z,22.40
2023-05-01T14:56:56.744Z,23.60
2023-05-01T15:01:59.109Z,22.30
2023-05-01T15:07:01.401Z,21.60
2023-05-01T15:12:06.067Z,20.60
2023-05-01T15:17:10.601Z,20.30
2023-05-01T15:22:12.972Z,19.80
2023-05-01T15:27:15.362Z,20.30
2023-05-01T15:32:18.990Z,21.30
2023-05-01T15:37:21.375Z,23.00
2023-05-01T15:42:23.677Z,23.60
2023-05-01T15:47:26.099Z,24.40
2023-05-01T15:52:28.533Z,22.90
2023-05-01T15:57:32.572Z,21.20
2023-05-01T16:02:34.943Z,20.50
2023-05-01T16:07:39.248Z,20.10
2023-05-01T16:12:41.500Z,20.40
2023-05-01T16:17:45.044Z,20.60
2023-05-01T16:22:47.697Z,20.20
2023-05-01T16:27:49.930Z,19.20
2023-05-01T16:32:52.310Z,19.90
2023-05-01T16:37:55.406Z,20.90
2023-05-01T16:43:02.095Z,21.90
2023-05-01T16:48:04.960Z,23.50
2023-05-01T16:53:07.286Z,24.80
2023-05-01T16:58:09.535Z,25.60
2023-05-01T17:03:11.903Z,26.20
2023-05-01T17:08:14.329Z,26.00
2023-05-01T17:13:16.808Z,25.40
2023-05-01T17:18:19.260Z,26.20
2023-05-01T17:23:22.388Z,27.90
2023-05-01T17:28:24.862Z,29.70
2023-05-01T17:33:30.504Z,31.30
2023-05-01T17:38:32.804Z,32.50
2023-05-01T17:43:35.061Z,33.10
2023-05-01T17:48:37.469Z,34.30
2023-05-01T17:53:39.877Z,35.70
2023-05-01T17:58:42.596Z,37.00
2023-05-01T18:03:45.142Z,40.00
2023-05-01T18:08:49.194Z,42.50
2023-05-01T18:13:51.469Z,43.10
2023-05-01T18:18:53.853Z,44.50
2023-05-01T18:23:56.157Z,46.20
2023-05-01T18:28:58.804Z,47.00
2023-05-01T18:34:02.088Z,49.00
2023-05-01T18:39:04.632Z,50.00
2023-05-01T18:44:06.954Z,51.70
2023-05-01T18:49:09.250Z,52.50
2023-05-01T18:54:12.290Z,54.70
2023-05-01T18:59:14.644Z,55.50
2023-05-01T19:04:18.945Z,56.40
2023-05-01T19:09:21.232Z,57.30
2023-05-01T19:14:23.608Z,58.20
2023-05-01T19:19:26.108Z,60.00
2023-05-01T19:24:28.362Z,60.20
2023-05-01T19:29:34.275Z,60.70
2023-05-01T19:34:37.133Z,61.90
2023-05-01T19:39:39.462Z,63.00
2023-05-01T19:44:41.905Z,62.00
2023-05-01T19:49:45.072Z,62.50
2023-05-01T19:54:47.620Z,62.60
2023-05-01T19:59:52.641Z,63.80
2023-05-01T20:04:55.046Z,65.20
2023-05-01T20:09:57.512Z,67.40
2023-05-01T20:15:01.371Z,68.00
2023-05-01T20:20:03.855Z,69.60
2023-05-01T20:25:09.370Z,70.00
2023-05-01T20:30:12.170Z,71.70
2023-05-01T20:35:15.130Z,70.00
2023-05-01T20:40:19.094Z,71.10
2023-05-01T20:45:21.505Z,71.70
2023-05-01T20:50:27.301Z,72.90
2023-05-01T20:55:30.022Z,74.20
2023-05-01T21:00:32.327Z,75.00
2023-05-01T21:05:34.660Z,75.70
2023-05-01T21:10:37.056Z,76.00
2023-05-01T21:15:41.393Z,77.00
2023-05-01T21:20:46.126Z,76.30
2023-05-01T21:25:48.422Z,76.30
2023-05-01T21:30:51.039Z,75.80
2023-05-01T21:35:53.640Z,76.70
2023-05-01T21:40:56.022Z,77.30
2023-05-01T21:45:58.394Z,77.30
2023-05-01T21:51:00.833Z,77.60
2023-05-01T21:56:03.485Z,78.90
2023-05-01T22:01:06.537Z,80.20
2023-05-01T22:06:08.917Z,80.90
2023-05-01T22:11:11.365Z,81.80
2023-05-01T22:16:14.047Z,82.10
2023-05-01T22:21:16.614Z,82.80
2023-05-01T22:26:18.936Z,83.60
2023-05-01T22:31:21.524Z,84.50
2023-05-01T22:36:24.259Z,86.00
2023-05-01T22:41:26.732Z,86.30
2023-05-01T22:46:29.110Z,87.50
2023-05-01T22:51:31.452Z,86.60
2023-05-01T22:56:33.705Z,87.40
2023-05-01T23:01:36.262Z,87.10
2023-05-01T23:06:39.245Z,88.70
2023-05-01T23:11:41.697Z,88.30
2023-05-01T23:16:44.584Z,81.30
2023-05-01T23:21:47.228Z,81.20
2023-05-01T23:26:49.951Z,74.60
2023-05-01T23:31:52.299Z,72.40
2023-05-01T23:36:54.937Z,70.50
2023-05-01T23:41:57.341Z,70.50
2023-05-01T23:46:59.662Z,70.10
2023-05-01T23:52:02.036Z,70.20
2023-05-01T23:57:04.356Z,70.10
